Costa Luminosa — ICGU — position and weather

sailwx.info

Track history (hours):
 
Tides and Currents Weather Stations Pressure Air Temp Water Temp Dewpoint Dewpoint Depression Visibility Wind Speed Wind Dir Waves Ship Positions

Costa Luminosa

Last reported at 2014-Aug-01 11:32 UTC. Time now 2014-Aug-01 11:56 UTC.
Position N 58°17' E 005°18'.

Length 294 m; draft 8.1 m.

Type: Passenger vessel. MMSI: 247257900.

Date/timePositionNaut miles runAvg speedWind from/ knotsBaromVisibWave heightAir tempDewpointWater temp
2014-Aug-01 11:32N 58°17' E 005°18'  
2014-Jul-28 18:32N 59°05' E 004°55'1211.8
2014-Jul-28 17:33N 59°05' E 005°18'1010.3
2014-Jul-28 16:33N 59°02' E 005°37'5 4.9
2014-Jul-28 15:31N 58°58' E 005°44'0 0.0
2014-Jul-28 14:31N 58°58' E 005°44'0 0.0
2014-Jul-28 13:31N 58°58' E 005°44'0 0.0
2014-Jul-28 12:31N 58°58' E 005°44'0 0.0
2014-Jul-28 11:31N 58°58' E 005°44'0 0.0
2014-Jul-28 10:31N 58°58' E 005°44'0 0.1
2014-Jul-28 09:34N 58°59' E 005°44'6 6.3
2014-Jul-28 08:34N 59°01' E 005°33'1313.0
2014-Jul-28 07:34N 58°49' E 005°26'1615.6
2014-Jul-28 06:33N 58°33' E 005°29'1717.2
2014-Jul-28 05:33N 58°20' E 005°50'1616.2
2014-Jul-28 04:33N 58°09' E 006°13'6415.7
2014-Jul-28 00:27N 57°59' E 008°13'1617.3
2014-Jul-27 23:33N 58°09' E 008°36'1919.5
2014-Jul-27 22:33N 58°21' E 009°05'5618.5
2014-Jul-27 19:33N 58°56' E 010°28'1514.7
2014-Jul-27 18:33N 59°10' E 010°38'1615.7
2014-Jul-27 17:33N 59°25' E 010°33'1515.0
2014-Jul-27 16:34N 59°40' E 010°37'1312.6
2014-Jul-27 15:33N 59°53' E 010°40'3 2.6
2014-Jul-27 14:33N 59°54' E 010°44'0 0.0
2014-Jul-27 13:32N 59°54' E 010°44'0 0.0
2014-Jul-27 12:33N 59°54' E 010°44'0 0.0
2014-Jul-27 11:32N 59°54' E 010°44'0 0.0
2014-Jul-27 10:17N 59°54' E 010°44'0 0.1
2014-Jul-27 09:26N 59°54' E 010°44'1210.6
2014-Jul-27 08:16N 59°43' E 010°35'1013.6
2014-Jul-27 07:33N 59°33' E 010°37'1717.3
2014-Jul-27 06:33N 59°16' E 010°37'1515.2
2014-Jul-27 05:33N 59°01' E 010°34'1413.6
2014-Jul-27 04:34N 58°47' E 010°34'3415.9
2014-Jul-27 02:26N 58°14' E 010°49'1415.8
2014-Jul-27 01:33N 58°01' E 010°57'1616.0
2014-Jul-27 00:33N 57°46' E 011°10'1615.9
2014-Jul-26 23:33N 57°32' E 011°23'1716.6
2014-Jul-26 22:34N 57°17' E 011°34'1716.5
2014-Jul-26 21:33N 57°01' E 011°43'1616.2
2014-Jul-26 20:33N 56°46' E 011°53'1616.1
2014-Jul-26 19:33N 56°30' E 011°60'1514.7
2014-Jul-26 18:34N 56°16' E 012°09'1515.2
2014-Jul-26 17:34N 56°08' E 012°32'1615.7
2014-Jul-26 16:34N 55°54' E 012°44'1211.7
2014-Jul-26 15:33N 55°43' E 012°37'0 0.0
2014-Jul-26 14:33N 55°43' E 012°37'0 0.0
2014-Jul-26 13:33N 55°43' E 012°37'0 0.0
2014-Jul-26 12:33N 55°43' E 012°37'0 0.0
2014-Jul-26 11:33N 55°43' E 012°37'0 0.0
2014-Jul-26 10:33N 55°43' E 012°37'0 0.0
2014-Jul-26 09:33N 55°43' E 012°37'0 0.0
2014-Jul-26 08:33N 55°43' E 012°37'0 0.0
2014-Jul-26 07:33N 55°43' E 012°37'0 0.0
2014-Jul-26 06:33N 55°43' E 012°37'2 2.0
2014-Jul-26 05:34N 55°44' E 012°40'1312.5
2014-Jul-26 04:33N 55°57' E 012°39'1514.6
2014-Jul-26 03:33N 56°09' E 012°25'1717.2
2014-Jul-26 02:33N 56°09' E 011°54'1817.7
2014-Jul-26 01:33N 56°07' E 011°23'1414.5
2014-Jul-26 00:33N 55°59' E 011°02'1615.8
2014-Jul-25 23:33N 55°45' E 010°48'3615.5
2014-Jul-25 21:14N 55°10' E 011°04'1116.2
2014-Jul-25 20:32N 54°59' E 011°00'1716.4
2014-Jul-25 19:31N 54°42' E 010°54'1819.0
2014-Jul-25 18:33N 54°33' E 011°21'1818.5
2014-Jul-25 17:33N 54°26' E 011°50'1615.7
2014-Jul-25 16:33N 54°33' E 012°14'1817.9
2014-Jul-25 15:33N 54°45' E 012°38'1817.9
2014-Jul-25 14:33N 54°52' E 013°06'1919.0
2014-Jul-25 13:33N 54°58' E 013°38'1918.9
2014-Jul-25 12:33N 55°06' E 014°08'1919.1
2014-Jul-25 11:33N 55°21' E 014°27'1918.9
2014-Jul-25 10:33N 55°32' E 014°54'1918.9
2014-Jul-25 09:33N 55°42' E 015°23'1919.3
2014-Jul-25 08:34N 55°52' E 015°53'1919.1
2014-Jul-25 07:33N 56°01' E 016°22'1919.1
2014-Jul-25 06:33N 56°11' E 016°52'1918.8
2014-Jul-25 05:34N 56°22' E 017°19'1919.0
2014-Jul-25 04:34N 56°34' E 017°46'1918.9
2014-Jul-25 03:33N 56°45' E 018°14'1918.9
2014-Jul-25 02:33N 56°59' E 018°37'1919.1
2014-Jul-25 01:33N 57°14' E 018°58'1919.0
2014-Jul-25 00:33N 57°30' E 019°19'1919.0
2014-Jul-24 23:33N 57°45' E 019°40'4119.2
2014-Jul-24 21:24N 58°19' E 020°25'2119.2
2014-Jul-24 20:19N 58°35' E 020°50'1519.0
2014-Jul-24 19:33N 58°47' E 021°06'1918.7
2014-Jul-24 18:33N 59°02' E 021°28'1918.6
2014-Jul-24 17:33N 59°15' E 021°54'1818.5
2014-Jul-24 16:33N 59°26' E 022°23'1818.3
2014-Jul-24 15:33N 59°34' E 022°56'1918.9
2014-Jul-24 14:33N 59°39' E 023°32'1918.8
2014-Jul-24 13:33N 59°44' E 024°07'2020.0
2014-Jul-24 12:33N 59°51' E 024°45'1514.8
2014-Jul-24 11:33N 60°05' E 024°54'4 3.5
2014-Jul-24 10:32N 60°09' E 024°55'0 0.0
2014-Jul-24 09:32N 60°09' E 024°55'0 0.0
2014-Jul-24 08:32N 60°09' E 024°55'0 0.0
2014-Jul-24 07:32N 60°09' E 024°55'0 0.0
2014-Jul-24 06:32N 60°09' E 024°55'0 0.0
2014-Jul-24 05:32N 60°09' E 024°55'0 0.0
2014-Jul-24 04:32N 60°09' E 024°55'5 5.4
2014-Jul-24 03:33N 60°04' E 024°53'1313.5
2014-Jul-24 02:34N 59°56' E 025°16'1817.5
2014-Jul-24 01:33N 59°55' E 025°51'1817.8
2014-Jul-24 00:34N 59°60' E 026°25'1414.1
2014-Jul-23 23:34N 59°60' E 026°53'1413.4
2014-Jul-23 22:33N 60°04' E 027°19'8311.9
2014-Jul-23 15:33N 59°56' E 030°05'3 3.1
2014-Jul-23 14:31N 59°57' E 030°11'0 0.0
2014-Jul-23 13:31N 59°57' E 030°11'0 0.0
2014-Jul-23 12:31N 59°57' E 030°11'0 0.0
2014-Jul-23 11:31N 59°57' E 030°11'0 0.0
2014-Jul-23 10:31N 59°57' E 030°11'0 0.0
2014-Jul-23 09:31N 59°57' E 030°11'0 0.0
2014-Jul-23 08:31N 59°57' E 030°11'0 0.0
2014-Jul-23 07:31N 59°57' E 030°11'0 0.0
2014-Jul-23 06:31N 59°57' E 030°11'0 0.0
2014-Jul-23 05:33N 59°57' E 030°11'0 0.0
2014-Jul-23 04:31N 59°57' E 030°11'0 0.0
2014-Jul-23 03:31N 59°57' E 030°11'0 0.1
2014-Jul-23 02:33N 59°57' E 030°11'7 7.3
2014-Jul-23 01:33N 59°56' E 029°57'7414.8
2014-Jul-22 20:33N 60°06' E 027°30'1616.2
2014-Jul-22 19:34N 59°58' E 027°02'1616.4
2014-Jul-22 18:33N 59°58' E 026°29'1816.8
2014-Jul-22 17:29N 59°53' E 025°55'1816.5
2014-Jul-22 16:25N 59°49' E 025°20'1416.2
2014-Jul-22 15:33N 59°45' E 024°54'1414.0
2014-Jul-22 14:33N 59°32' E 024°44'  
Track history (hours):
 
Tides and Currents Weather Stations Pressure Air Temp Water Temp Dewpoint Dewpoint Depression Visibility Wind Speed Wind Dir Waves Ship Positions

Costa Luminosa

Last reported at 2014-Aug-01 11:32 UTC. Time now 2014-Aug-01 11:56 UTC.
Position N 58°17' E 005°18'.

Length 294 m; draft 8.1 m.

Type: Passenger vessel. MMSI: 247257900.

Date/timePositionNaut miles runAvg speedWind from/ knotsBaromVisibWave heightAir tempDewpointWater temp
2014-Aug-01 11:32N 58°17' E 005°18'  
2014-Jul-28 18:32N 59°05' E 004°55'1211.8
2014-Jul-28 17:33N 59°05' E 005°18'1010.3
2014-Jul-28 16:33N 59°02' E 005°37'5 4.9
2014-Jul-28 15:31N 58°58' E 005°44'0 0.0
2014-Jul-28 14:31N 58°58' E 005°44'0 0.0
2014-Jul-28 13:31N 58°58' E 005°44'0 0.0
2014-Jul-28 12:31N 58°58' E 005°44'0 0.0
2014-Jul-28 11:31N 58°58' E 005°44'0 0.0
2014-Jul-28 10:31N 58°58' E 005°44'0 0.1
2014-Jul-28 09:34N 58°59' E 005°44'6 6.3
2014-Jul-28 08:34N 59°01' E 005°33'1313.0
2014-Jul-28 07:34N 58°49' E 005°26'1615.6
2014-Jul-28 06:33N 58°33' E 005°29'1717.2
2014-Jul-28 05:33N 58°20' E 005°50'1616.2
2014-Jul-28 04:33N 58°09' E 006°13'6415.7
2014-Jul-28 00:27N 57°59' E 008°13'1617.3
2014-Jul-27 23:33N 58°09' E 008°36'1919.5
2014-Jul-27 22:33N 58°21' E 009°05'5618.5
2014-Jul-27 19:33N 58°56' E 010°28'1514.7
2014-Jul-27 18:33N 59°10' E 010°38'1615.7
2014-Jul-27 17:33N 59°25' E 010°33'1515.0
2014-Jul-27 16:34N 59°40' E 010°37'1312.6
2014-Jul-27 15:33N 59°53' E 010°40'3 2.6
2014-Jul-27 14:33N 59°54' E 010°44'0 0.0
2014-Jul-27 13:32N 59°54' E 010°44'0 0.0
2014-Jul-27 12:33N 59°54' E 010°44'0 0.0
2014-Jul-27 11:32N 59°54' E 010°44'0 0.0
2014-Jul-27 10:17N 59°54' E 010°44'0 0.1
2014-Jul-27 09:26N 59°54' E 010°44'1210.6
2014-Jul-27 08:16N 59°43' E 010°35'1013.6
2014-Jul-27 07:33N 59°33' E 010°37'1717.3
2014-Jul-27 06:33N 59°16' E 010°37'1515.2
2014-Jul-27 05:33N 59°01' E 010°34'1413.6
2014-Jul-27 04:34N 58°47' E 010°34'3415.9
2014-Jul-27 02:26N 58°14' E 010°49'1415.8
2014-Jul-27 01:33N 58°01' E 010°57'1616.0
2014-Jul-27 00:33N 57°46' E 011°10'1615.9
2014-Jul-26 23:33N 57°32' E 011°23'1716.6
2014-Jul-26 22:34N 57°17' E 011°34'1716.5
2014-Jul-26 21:33N 57°01' E 011°43'1616.2
2014-Jul-26 20:33N 56°46' E 011°53'1616.1
2014-Jul-26 19:33N 56°30' E 011°60'1514.7
2014-Jul-26 18:34N 56°16' E 012°09'1515.2
2014-Jul-26 17:34N 56°08' E 012°32'1615.7
2014-Jul-26 16:34N 55°54' E 012°44'1211.7
2014-Jul-26 15:33N 55°43' E 012°37'0 0.0
2014-Jul-26 14:33N 55°43' E 012°37'0 0.0
2014-Jul-26 13:33N 55°43' E 012°37'0 0.0
2014-Jul-26 12:33N 55°43' E 012°37'0 0.0
2014-Jul-26 11:33N 55°43' E 012°37'0 0.0
2014-Jul-26 10:33N 55°43' E 012°37'0 0.0
2014-Jul-26 09:33N 55°43' E 012°37'0 0.0
2014-Jul-26 08:33N 55°43' E 012°37'0 0.0
2014-Jul-26 07:33N 55°43' E 012°37'0 0.0
2014-Jul-26 06:33N 55°43' E 012°37'2 2.0
2014-Jul-26 05:34N 55°44' E 012°40'1312.5
2014-Jul-26 04:33N 55°57' E 012°39'1514.6
2014-Jul-26 03:33N 56°09' E 012°25'1717.2
2014-Jul-26 02:33N 56°09' E 011°54'1817.7
2014-Jul-26 01:33N 56°07' E 011°23'1414.5
2014-Jul-26 00:33N 55°59' E 011°02'1615.8
2014-Jul-25 23:33N 55°45' E 010°48'3615.5
2014-Jul-25 21:14N 55°10' E 011°04'1116.2
2014-Jul-25 20:32N 54°59' E 011°00'1716.4
2014-Jul-25 19:31N 54°42' E 010°54'1819.0
2014-Jul-25 18:33N 54°33' E 011°21'1818.5
2014-Jul-25 17:33N 54°26' E 011°50'1615.7
2014-Jul-25 16:33N 54°33' E 012°14'1817.9
2014-Jul-25 15:33N 54°45' E 012°38'1817.9
2014-Jul-25 14:33N 54°52' E 013°06'1919.0
2014-Jul-25 13:33N 54°58' E 013°38'1918.9
2014-Jul-25 12:33N 55°06' E 014°08'1919.1
2014-Jul-25 11:33N 55°21' E 014°27'1918.9
2014-Jul-25 10:33N 55°32' E 014°54'1918.9
2014-Jul-25 09:33N 55°42' E 015°23'1919.3
2014-Jul-25 08:34N 55°52' E 015°53'1919.1
2014-Jul-25 07:33N 56°01' E 016°22'1919.1
2014-Jul-25 06:33N 56°11' E 016°52'1918.8
2014-Jul-25 05:34N 56°22' E 017°19'1919.0
2014-Jul-25 04:34N 56°34' E 017°46'1918.9
2014-Jul-25 03:33N 56°45' E 018°14'1918.9
2014-Jul-25 02:33N 56°59' E 018°37'1919.1
2014-Jul-25 01:33N 57°14' E 018°58'1919.0
2014-Jul-25 00:33N 57°30' E 019°19'1919.0
2014-Jul-24 23:33N 57°45' E 019°40'4119.2
2014-Jul-24 21:24N 58°19' E 020°25'2119.2
2014-Jul-24 20:19N 58°35' E 020°50'1519.0
2014-Jul-24 19:33N 58°47' E 021°06'1918.7
2014-Jul-24 18:33N 59°02' E 021°28'1918.6
2014-Jul-24 17:33N 59°15' E 021°54'1818.5
2014-Jul-24 16:33N 59°26' E 022°23'1818.3
2014-Jul-24 15:33N 59°34' E 022°56'1918.9
2014-Jul-24 14:33N 59°39' E 023°32'1918.8
2014-Jul-24 13:33N 59°44' E 024°07'2020.0
2014-Jul-24 12:33N 59°51' E 024°45'1514.8
2014-Jul-24 11:33N 60°05' E 024°54'4 3.5
2014-Jul-24 10:32N 60°09' E 024°55'0 0.0
2014-Jul-24 09:32N 60°09' E 024°55'0 0.0
2014-Jul-24 08:32N 60°09' E 024°55'0 0.0
2014-Jul-24 07:32N 60°09' E 024°55'0 0.0
2014-Jul-24 06:32N 60°09' E 024°55'0 0.0
2014-Jul-24 05:32N 60°09' E 024°55'0 0.0
2014-Jul-24 04:32N 60°09' E 024°55'5 5.4
2014-Jul-24 03:33N 60°04' E 024°53'1313.5
2014-Jul-24 02:34N 59°56' E 025°16'1817.5
2014-Jul-24 01:33N 59°55' E 025°51'1817.8
2014-Jul-24 00:34N 59°60' E 026°25'1414.1
2014-Jul-23 23:34N 59°60' E 026°53'1413.4
2014-Jul-23 22:33N 60°04' E 027°19'8311.9
2014-Jul-23 15:33N 59°56' E 030°05'3 3.1
2014-Jul-23 14:31N 59°57' E 030°11'0 0.0
2014-Jul-23 13:31N 59°57' E 030°11'0 0.0
2014-Jul-23 12:31N 59°57' E 030°11'0 0.0
2014-Jul-23 11:31N 59°57' E 030°11'0 0.0
2014-Jul-23 10:31N 59°57' E 030°11'0 0.0
2014-Jul-23 09:31N 59°57' E 030°11'0 0.0
2014-Jul-23 08:31N 59°57' E 030°11'0 0.0
2014-Jul-23 07:31N 59°57' E 030°11'0 0.0
2014-Jul-23 06:31N 59°57' E 030°11'0 0.0
2014-Jul-23 05:33N 59°57' E 030°11'0 0.0
2014-Jul-23 04:31N 59°57' E 030°11'0 0.0
2014-Jul-23 03:31N 59°57' E 030°11'0 0.1
2014-Jul-23 02:33N 59°57' E 030°11'7 7.3
2014-Jul-23 01:33N 59°56' E 029°57'7414.8
2014-Jul-22 20:33N 60°06' E 027°30'1616.2
2014-Jul-22 19:34N 59°58' E 027°02'1616.4
2014-Jul-22 18:33N 59°58' E 026°29'1816.8
2014-Jul-22 17:29N 59°53' E 025°55'1816.5
2014-Jul-22 16:25N 59°49' E 025°20'1416.2
2014-Jul-22 15:33N 59°45' E 024°54'1414.0
2014-Jul-22 14:33N 59°32' E 024°44'  

Dump ship's entire track history